createdAt,value
2022-10-13T00:01:09.216Z,12.56
2022-10-13T00:04:10.984Z,12.47
2022-10-13T00:07:12.648Z,12.49
2022-10-13T00:10:14.249Z,12.47
2022-10-13T00:13:16.649Z,12.47
2022-10-13T00:16:21.104Z,12.57
2022-10-13T00:19:22.795Z,12.58
2022-10-13T00:22:34.125Z,12.58
2022-10-13T00:25:35.839Z,12.71
2022-10-13T00:28:38.672Z,12.76
2022-10-13T00:31:42.748Z,12.76
2022-10-13T00:34:44.481Z,12.71
2022-10-13T00:37:46.606Z,12.78
2022-10-13T00:40:56.229Z,12.74
2022-10-13T00:44:07.116Z,12.75
2022-10-13T00:47:09.508Z,12.70
2022-10-13T00:50:16.690Z,12.72
2022-10-13T00:53:25.778Z,12.62
2022-10-13T00:56:28.634Z,12.60
2022-10-13T00:59:35.932Z,12.38
2022-10-13T01:02:39.018Z,12.44
2022-10-13T01:05:42.380Z,12.44
2022-10-13T01:08:44.304Z,12.30
2022-10-13T01:11:59.773Z,12.15
2022-10-13T01:15:20.579Z,12.09
2022-10-13T01:19:12.452Z,12.01
2022-10-13T01:22:57.061Z,11.98
2022-10-13T01:26:18.312Z,11.81
2022-10-13T01:29:59.346Z,11.78
2022-10-13T01:33:10.139Z,11.75
2022-10-13T01:36:23.417Z,11.58
2022-10-13T01:39:50.324Z,11.53
2022-10-13T01:43:02.074Z,11.51
2022-10-13T01:46:13.404Z,11.44
2022-10-13T01:49:18.797Z,11.41
2022-10-13T01:52:23.872Z,11.46
2022-10-13T01:55:25.527Z,11.53
2022-10-13T01:58:30.025Z,11.54
2022-10-13T02:01:43.514Z,11.54
2022-10-13T02:04:59.787Z,11.51
2022-10-13T02:08:24.854Z,11.57
2022-10-13T02:11:27.759Z,11.61
2022-10-13T02:14:32.537Z,11.66
2022-10-13T02:17:34.888Z,11.83
2022-10-13T02:20:37.355Z,11.64
2022-10-13T02:23:39.021Z,11.46
2022-10-13T02:26:43.850Z,11.35
2022-10-13T02:29:55.356Z,11.27
2022-10-13T02:33:01.958Z,11.21
2022-10-13T02:36:04.103Z,11.17
2022-10-13T02:39:07.712Z,11.07
2022-10-13T02:42:10.635Z,11.13
2022-10-13T02:45:12.812Z,11.01
2022-10-13T02:48:14.497Z,11.02
2022-10-13T02:51:16.238Z,10.95
2022-10-13T02:54:17.943Z,10.86
2022-10-13T02:57:19.565Z,10.85
2022-10-13T03:00:22.946Z,10.97
2022-10-13T03:03:24.696Z,10.95
2022-10-13T03:06:29.273Z,10.85
2022-10-13T03:09:31.027Z,10.61
2022-10-13T03:12:33.052Z,10.66
2022-10-13T03:15:34.725Z,10.69
2022-10-13T03:18:39.138Z,10.43
2022-10-13T03:21:40.839Z,10.57
2022-10-13T03:24:42.964Z,10.72
2022-10-13T03:27:44.638Z,10.73
2022-10-13T03:30:46.313Z,10.71
2022-10-13T03:33:47.946Z,10.76
2022-10-13T03:36:49.580Z,10.79
2022-10-13T03:39:51.316Z,10.69
2022-10-13T03:42:52.898Z,10.53
2022-10-13T03:45:58.874Z,10.62
2022-10-13T03:49:00.578Z,10.83
2022-10-13T03:52:05.641Z,10.73
2022-10-13T03:55:07.529Z,10.86
2022-10-13T03:58:09.159Z,10.96
2022-10-13T04:01:12.953Z,10.86
2022-10-13T04:04:17.220Z,11.23
2022-10-13T04:07:22.044Z,11.23
2022-10-13T04:10:23.712Z,11.35
2022-10-13T04:13:25.547Z,11.49
2022-10-13T04:16:30.200Z,11.59
2022-10-13T04:19:31.909Z,11.32
2022-10-13T04:22:36.265Z,11.74
2022-10-13T04:25:39.142Z,11.85
2022-10-13T04:28:40.754Z,12.04
2022-10-13T04:31:45.384Z,12.02
2022-10-13T04:34:50.515Z,12.12
2022-10-13T04:37:52.536Z,12.37
2022-10-13T04:40:54.191Z,12.45
2022-10-13T04:43:55.912Z,12.59
2022-10-13T04:46:58.236Z,12.63
2022-10-13T04:49:59.987Z,12.80
2022-10-13T04:53:01.725Z,12.89
2022-10-13T04:56:11.335Z,12.90
2022-10-13T04:59:15.882Z,12.88
2022-10-13T05:02:17.932Z,12.88
2022-10-13T05:05:19.897Z,12.91
2022-10-13T05:08:21.785Z,12.98
2022-10-13T05:11:25.482Z,12.99
2022-10-13T05:14:27.182Z,13.00
2022-10-13T05:17:35.063Z,13.05
2022-10-13T05:20:42.832Z,12.96
2022-10-13T05:23:45.802Z,12.92
2022-10-13T05:26:47.430Z,12.75
2022-10-13T05:29:49.182Z,12.64
2022-10-13T05:32:53.825Z,12.67
2022-10-13T05:36:03.973Z,12.62
2022-10-13T05:39:10.039Z,12.44
2022-10-13T05:42:11.767Z,12.04
2022-10-13T05:45:14.346Z,12.07
2022-10-13T05:48:16.454Z,12.05
2022-10-13T05:51:22.942Z,11.98
2022-10-13T05:54:35.617Z,11.82
2022-10-13T05:57:42.088Z,11.82
2022-10-13T06:00:44.059Z,11.68
2022-10-13T06:03:48.769Z,11.63
2022-10-13T06:06:50.757Z,11.72
2022-10-13T06:09:52.835Z,11.70
2022-10-13T06:12:54.401Z,11.61
2022-10-13T06:15:56.031Z,11.64
2022-10-13T06:18:57.921Z,11.62
2022-10-13T06:22:03.399Z,11.60
2022-10-13T06:25:07.238Z,11.56
2022-10-13T06:28:08.880Z,11.57
2022-10-13T06:31:10.540Z,11.68
2022-10-13T06:34:12.702Z,11.63
2022-10-13T06:37:15.171Z,11.64
2022-10-13T06:40:17.241Z,11.77
2022-10-13T06:43:18.834Z,11.71
2022-10-13T06:46:25.152Z,11.81
2022-10-13T06:49:26.924Z,11.83
2022-10-13T06:52:28.518Z,11.84
2022-10-13T06:55:30.269Z,11.93
2022-10-13T06:58:32.127Z,11.88
2022-10-13T07:01:39.135Z,11.95
2022-10-13T07:04:46.982Z,12.05
2022-10-13T07:07:51.542Z,12.10
2022-10-13T07:10:53.260Z,12.14
2022-10-13T07:13:55.145Z,12.16
2022-10-13T07:16:56.757Z,12.17
2022-10-13T07:19:59.695Z,12.25
2022-10-13T07:23:04.111Z,12.28
2022-10-13T07:26:11.445Z,12.23
2022-10-13T07:29:13.429Z,12.18
2022-10-13T07:32:15.048Z,12.17
2022-10-13T07:35:17.092Z,12.35
2022-10-13T07:38:19.740Z,12.35
2022-10-13T07:41:23.192Z,12.44
2022-10-13T07:44:28.799Z,12.46
2022-10-13T07:47:31.235Z,12.23
2022-10-13T07:50:36.470Z,12.35
2022-10-13T07:53:39.095Z,12.45
2022-10-13T07:57:06.574Z,12.56
2022-10-13T08:00:14.461Z,12.73
2022-10-13T08:03:50.951Z,12.84
2022-10-13T08:06:55.995Z,12.90
2022-10-13T08:09:59.089Z,12.88
2022-10-13T08:13:01.415Z,13.04
2022-10-13T08:16:26.379Z,12.89
2022-10-13T08:23:29.446Z,13.18
2022-10-13T08:27:26.644Z,12.99
2022-10-13T08:30:42.155Z,13.30
2022-10-13T08:33:47.398Z,13.36
2022-10-13T08:40:46.919Z,13.66
2022-10-13T08:45:10.894Z,13.88
2022-10-13T08:48:33.261Z,14.00
2022-10-13T08:51:36.290Z,14.20
2022-10-13T08:54:38.424Z,14.29
2022-10-13T08:57:40.236Z,14.38
2022-10-13T09:00:41.993Z,14.61
2022-10-13T09:03:52.937Z,14.85
2022-10-13T09:07:10.585Z,14.94
2022-10-13T09:10:12.195Z,14.87
2022-10-13T09:13:13.863Z,15.17
2022-10-13T09:16:15.535Z,15.16
2022-10-13T09:19:22.693Z,15.14
2022-10-13T09:22:25.685Z,15.18
2022-10-13T09:25:27.406Z,15.22
2022-10-13T09:28:31.405Z,15.14
2022-10-13T09:31:33.830Z,15.02
2022-10-13T09:34:35.572Z,15.21
2022-10-13T09:37:40.530Z,15.23
2022-10-13T09:43:50.307Z,15.44
2022-10-13T09:47:03.030Z,15.57
2022-10-13T09:50:17.997Z,15.51
2022-10-13T09:53:32.187Z,15.51
2022-10-13T09:56:43.211Z,15.48
2022-10-13T10:00:07.251Z,15.47
2022-10-13T10:03:24.165Z,15.60
2022-10-13T10:06:27.893Z,15.59
2022-10-13T10:09:58.673Z,15.57
2022-10-13T10:13:01.473Z,15.43
2022-10-13T10:16:07.030Z,15.26
2022-10-13T10:19:30.602Z,15.15
2022-10-13T10:23:07.808Z,15.12
2022-10-13T10:26:47.031Z,15.24
2022-10-13T10:30:00.570Z,15.18
2022-10-13T10:33:13.336Z,14.97
2022-10-13T10:36:24.055Z,15.22
2022-10-13T10:39:38.936Z,15.25
2022-10-13T10:43:09.992Z,15.40
2022-10-13T10:46:22.699Z,15.61
2022-10-13T10:49:30.797Z,15.75
2022-10-13T10:53:00.357Z,15.81
2022-10-13T10:56:29.660Z,15.71
2022-10-13T10:59:51.837Z,15.72
2022-10-13T11:03:11.524Z,15.99
2022-10-13T11:06:13.138Z,16.00
2022-10-13T11:09:14.778Z,16.31
2022-10-13T11:12:19.701Z,16.69
2022-10-13T11:15:27.732Z,16.84
2022-10-13T11:19:08.425Z,17.14
2022-10-13T11:22:17.933Z,17.27
2022-10-13T11:25:37.253Z,17.42
2022-10-13T11:28:42.455Z,17.28
2022-10-13T11:31:55.712Z,16.90
2022-10-13T11:35:05.247Z,16.82
2022-10-13T11:38:23.238Z,16.89
2022-10-13T11:41:33.251Z,16.71
2022-10-13T11:44:55.383Z,16.74
2022-10-13T11:48:15.586Z,16.70
2022-10-13T11:51:30.166Z,16.66
2022-10-13T11:54:37.727Z,16.63
2022-10-13T11:57:39.431Z,16.61
2022-10-13T12:00:57.156Z,16.72
2022-10-13T12:03:58.801Z,16.69
2022-10-13T12:07:03.728Z,16.76
2022-10-13T12:10:08.848Z,16.74
2022-10-13T12:13:24.219Z,16.63
2022-10-13T12:16:27.322Z,16.67
2022-10-13T12:19:31.734Z,16.81
2022-10-13T12:22:36.847Z,16.96
2022-10-13T12:25:48.103Z,17.00
2022-10-13T12:28:54.358Z,17.07
2022-10-13T12:31:58.340Z,17.10
2022-10-13T12:35:25.775Z,17.13
2022-10-13T12:38:27.618Z,17.20
2022-10-13T12:41:35.525Z,17.19
2022-10-13T12:44:37.615Z,16.97
2022-10-13T12:47:45.411Z,16.98
2022-10-13T12:50:47.058Z,16.95
2022-10-13T12:53:49.239Z,16.98
2022-10-13T12:56:56.498Z,16.93
2022-10-13T12:59:58.480Z,16.94
2022-10-13T13:03:06.288Z,16.77
2022-10-13T13:06:15.938Z,16.79
2022-10-13T13:09:25.020Z,16.88
2022-10-13T13:12:28.355Z,16.91
2022-10-13T13:15:37.218Z,17.01
2022-10-13T13:18:41.814Z,16.97
2022-10-13T13:21:43.942Z,17.10
2022-10-13T13:24:48.582Z,17.08
2022-10-13T13:27:50.835Z,17.22
2022-10-13T13:30:52.786Z,17.33
2022-10-13T13:33:54.426Z,17.18
2022-10-13T13:36:56.062Z,17.32
2022-10-13T13:39:58.775Z,17.27
2022-10-13T13:43:00.449Z,17.20
2022-10-13T13:46:07.484Z,17.21
2022-10-13T13:49:12.173Z,17.15
2022-10-13T13:52:13.827Z,17.27
2022-10-13T13:55:15.679Z,17.23
2022-10-13T13:58:17.317Z,17.21
2022-10-13T14:01:19.093Z,17.17
2022-10-13T14:04:20.765Z,17.14
2022-10-13T14:07:23.000Z,17.10
2022-10-13T14:10:29.278Z,17.04
2022-10-13T14:13:30.896Z,17.00
2022-10-13T14:16:32.852Z,16.97
2022-10-13T14:19:38.088Z,17.07
2022-10-13T14:22:40.067Z,17.00
2022-10-13T14:25:41.709Z,16.95
2022-10-13T14:28:44.826Z,16.89
2022-10-13T14:31:46.494Z,16.88
2022-10-13T14:34:48.257Z,16.80
2022-10-13T14:37:50.009Z,16.75
2022-10-13T14:40:51.616Z,16.76
2022-10-13T14:43:54.663Z,16.65
2022-10-13T14:46:56.934Z,16.61
2022-10-13T14:50:01.252Z,16.73
2022-10-13T14:53:02.825Z,16.67
2022-10-13T14:56:20.227Z,16.65
2022-10-13T14:59:26.602Z,16.46
2022-10-13T15:02:28.149Z,16.47
2022-10-13T15:05:30.449Z,16.33
2022-10-13T15:08:32.754Z,16.35
2022-10-13T15:11:34.810Z,16.32
2022-10-13T15:14:36.460Z,16.37
2022-10-13T15:17:38.646Z,16.23
2022-10-13T15:20:47.500Z,16.39
2022-10-13T15:23:51.417Z,16.19
2022-10-13T15:26:53.103Z,16.37
2022-10-13T15:29:54.799Z,16.28
2022-10-13T15:32:56.598Z,16.23
2022-10-13T15:35:58.350Z,16.18
2022-10-13T15:39:00.223Z,16.10
2022-10-13T15:42:02.264Z,16.00
2022-10-13T15:45:09.938Z,16.00
2022-10-13T15:48:13.074Z,15.87
2022-10-13T15:51:18.356Z,15.82
2022-10-13T15:54:21.654Z,15.75
2022-10-13T15:57:25.150Z,15.68
2022-10-13T16:00:27.158Z,15.67
2022-10-13T16:03:30.582Z,15.65
2022-10-13T16:06:33.643Z,15.61
2022-10-13T16:09:35.255Z,15.62
2022-10-13T16:12:36.872Z,15.59
2022-10-13T16:15:41.956Z,15.51
2022-10-13T16:18:44.902Z,15.50
2022-10-13T16:21:46.955Z,15.42
2022-10-13T16:24:49.606Z,15.33
2022-10-13T16:27:51.360Z,15.25
2022-10-13T16:30:52.951Z,15.17
2022-10-13T16:33:54.646Z,15.11
2022-10-13T16:36:56.356Z,15.15
2022-10-13T16:39:58.032Z,15.06
2022-10-13T16:42:59.650Z,14.95
2022-10-13T16:46:03.368Z,14.90
2022-10-13T16:49:07.796Z,14.87
2022-10-13T16:52:09.436Z,14.78
2022-10-13T16:55:11.168Z,14.81
2022-10-13T16:58:12.868Z,14.71
2022-10-13T17:01:14.498Z,14.65
2022-10-13T17:04:19.797Z,14.62
2022-10-13T17:07:23.914Z,14.56
2022-10-13T17:10:25.671Z,14.52
2022-10-13T17:13:27.326Z,14.45
2022-10-13T17:16:29.972Z,14.48
2022-10-13T17:19:31.927Z,14.47
2022-10-13T17:22:33.881Z,14.41
2022-10-13T17:25:35.499Z,14.52
2022-10-13T17:28:40.371Z,14.46
2022-10-13T17:31:41.992Z,14.40
2022-10-13T17:34:43.671Z,14.41
2022-10-13T17:37:49.950Z,14.40
2022-10-13T17:40:57.313Z,14.41
2022-10-13T17:44:01.523Z,14.35
2022-10-13T17:47:03.213Z,14.36
2022-10-13T17:50:05.267Z,14.36
2022-10-13T17:53:06.940Z,14.42
2022-10-13T17:56:12.398Z,14.41
2022-10-13T17:59:16.089Z,14.54
2022-10-13T18:02:18.962Z,14.55
2022-10-13T18:05:20.626Z,14.38
2022-10-13T18:08:22.194Z,14.37
2022-10-13T18:11:24.989Z,14.36
2022-10-13T18:14:26.585Z,14.31
2022-10-13T18:17:28.239Z,14.26
2022-10-13T18:20:29.810Z,14.19
2022-10-13T18:23:32.447Z,14.09
2022-10-13T18:26:37.179Z,14.09
2022-10-13T18:29:42.138Z,14.07
2022-10-13T18:32:43.798Z,14.03
2022-10-13T18:35:46.862Z,13.98
2022-10-13T18:38:49.538Z,13.98
2022-10-13T18:41:52.594Z,13.89
2022-10-13T18:44:54.247Z,13.88
2022-10-13T18:47:55.973Z,13.93
2022-10-13T18:51:03.609Z,13.91
2022-10-13T18:54:06.758Z,13.90
2022-10-13T18:57:08.381Z,13.91
2022-10-13T19:00:10.449Z,13.98
2022-10-13T19:03:13.262Z,13.97
2022-10-13T19:06:16.718Z,14.03
2022-10-13T19:09:21.618Z,14.00
2022-10-13T19:12:23.251Z,14.01
2022-10-13T19:15:24.825Z,14.02
2022-10-13T19:18:28.260Z,14.10
2022-10-13T19:21:29.927Z,14.05
2022-10-13T19:24:31.668Z,14.08
2022-10-13T19:27:33.506Z,14.09
2022-10-13T19:30:35.123Z,14.06
2022-10-13T19:33:41.981Z,14.04
2022-10-13T19:36:49.188Z,13.98
2022-10-13T19:39:50.846Z,14.01
2022-10-13T19:42:52.463Z,14.01
2022-10-13T19:45:59.642Z,14.00
2022-10-13T19:49:02.063Z,14.01
2022-10-13T19:52:04.099Z,14.02
2022-10-13T19:55:06.142Z,13.95
2022-10-13T19:58:07.779Z,13.93
2022-10-13T20:01:09.493Z,13.90
2022-10-13T20:04:11.309Z,13.97
2022-10-13T20:07:14.878Z,13.96
2022-10-13T20:10:16.529Z,13.87
2022-10-13T20:13:18.099Z,13.74
2022-10-13T20:16:24.707Z,13.89
2022-10-13T20:19:27.444Z,13.89
2022-10-13T20:22:29.053Z,13.86
2022-10-13T20:25:30.622Z,13.87
2022-10-13T20:28:32.727Z,13.80
2022-10-13T20:31:34.636Z,13.78
2022-10-13T20:34:36.245Z,13.83
2022-10-13T20:37:37.952Z,13.86
2022-10-13T20:40:39.559Z,13.84
2022-10-13T20:43:41.400Z,13.88
2022-10-13T20:46:42.997Z,13.87
2022-10-13T20:49:44.578Z,13.80
2022-10-13T20:52:46.173Z,13.83
2022-10-13T20:55:56.146Z,13.82
2022-10-13T20:59:03.193Z,13.81
2022-10-13T21:02:04.811Z,13.81
2022-10-13T21:05:07.950Z,13.82
2022-10-13T21:08:10.237Z,13.73
2022-10-13T21:11:13.975Z,13.77
2022-10-13T21:14:15.753Z,13.78
2022-10-13T21:17:17.373Z,13.78
2022-10-13T21:20:18.943Z,13.80
2022-10-13T21:23:20.518Z,13.79
2022-10-13T21:26:23.448Z,13.68
2022-10-13T21:29:25.111Z,13.63
2022-10-13T21:32:26.693Z,13.56
2022-10-13T21:35:28.246Z,13.50
2022-10-13T21:38:30.294Z,13.42
2022-10-13T21:41:31.918Z,13.45
2022-10-13T21:44:33.497Z,13.47
2022-10-13T21:47:36.776Z,13.46
2022-10-13T21:50:38.390Z,13.47
2022-10-13T21:53:39.991Z,13.46
2022-10-13T21:56:42.087Z,13.52
2022-10-13T21:59:43.885Z,13.60
2022-10-13T22:02:45.463Z,13.65
2022-10-13T22:05:47.238Z,13.73
2022-10-13T22:08:52.650Z,13.83
2022-10-13T22:11:56.937Z,13.79
2022-10-13T22:14:58.514Z,13.78
2022-10-13T22:18:00.118Z,13.74
2022-10-13T22:21:03.413Z,13.79
2022-10-13T22:24:07.257Z,13.78
2022-10-13T22:27:08.880Z,13.73
2022-10-13T22:30:10.966Z,13.80
2022-10-13T22:33:12.728Z,13.84
2022-10-13T22:36:19.282Z,13.79
2022-10-13T22:39:21.273Z,13.74
2022-10-13T22:42:27.801Z,13.72
2022-10-13T22:45:29.404Z,13.66
2022-10-13T22:48:31.132Z,13.72
2022-10-13T22:51:35.493Z,13.73
2022-10-13T22:54:37.069Z,13.76
2022-10-13T22:57:38.718Z,13.80
2022-10-13T23:00:40.350Z,13.81
2022-10-13T23:03:42.683Z,13.81
2022-10-13T23:06:44.377Z,13.79
2022-10-13T23:09:45.935Z,13.77
2022-10-13T23:12:47.518Z,13.76
2022-10-13T23:15:49.293Z,13.79
2022-10-13T23:18:51.580Z,13.77
2022-10-13T23:21:58.953Z,13.76
2022-10-13T23:25:00.484Z,13.82
2022-10-13T23:28:02.292Z,13.80
2022-10-13T23:31:06.877Z,13.85
2022-10-13T23:34:08.479Z,13.84
2022-10-13T23:37:10.103Z,13.78
2022-10-13T23:40:12.063Z,13.82
2022-10-13T23:43:13.666Z,13.85
2022-10-13T23:46:16.307Z,13.83
2022-10-13T23:49:17.950Z,13.88
2022-10-13T23:52:20.021Z,13.82
2022-10-13T23:55:21.658Z,13.86
2022-10-13T23:58:23.274Z,13.88
